WetterOnline ( https://www.wetteronline.de )

Wetter aktuell Böchingen

Aktuelles Wetter: Rheinstetten (116m)

6-stündlich | Neueste Meldungen
Ortszeit Temperatur Wetter
Mo, 30.01. 1:00 -0.6° C leicht bewölkt
So, 29.01. 19:00 0.1° C wolkenlos
So, 29.01. 13:00 1.9° C bedeckt
So, 29.01. 7:00 -0.6° C bedeckt
So, 29.01. 1:00 0.4° C bedeckt
Sa, 28.01. 19:00 2.0° C bedeckt
Sa, 28.01. 13:00 2.6° C Regen
Sa, 28.01. 7:00 2.0° C wolkig
Ortszeit Temperatur Wetter
Mo, 30.01. 6:00 0.4° C bedeckt
Mo, 30.01. 5:50 0.4° C bedeckt
Mo, 30.01. 5:40 0.5° C bedeckt
Mo, 30.01. 5:30 0.2° C bedeckt
Mo, 30.01. 5:20 0.2° C bedeckt
Mo, 30.01. 5:10 0.2° C bedeckt
Mo, 30.01. 5:00 -0.1° C wolkig
Mo, 30.01. 4:30 -0.4° C leicht bewölkt
Mo, 30.01. 4:00 -0.4° C bewölkt
Mo, 30.01. 3:30 -0.4° C bewölkt
Mo, 30.01. 3:00 -0.6° C wolkig
Ortszeit Relative Feuchte Sichtweite
Mo, 30.01. 1:00 82% 18 km
So, 29.01. 19:00 78% 26 km
So, 29.01. 13:00 63% 45 km
So, 29.01. 7:00 75% 50 km
So, 29.01. 1:00 71% 45 km
Sa, 28.01. 19:00 71% 60 km
Sa, 28.01. 13:00 83% 35 km
Sa, 28.01. 7:00 88% 26 km
Ortszeit Relative Feuchte Sichtweite
Mo, 30.01. 6:00 76% 28 km
Mo, 30.01. 5:50 76% -
Mo, 30.01. 5:40 75% -
Mo, 30.01. 5:30 77% 28 km
Mo, 30.01. 5:20 77% -
Mo, 30.01. 5:10 78% -
Mo, 30.01. 5:00 79% 25 km
Mo, 30.01. 4:30 81% 20 km
Mo, 30.01. 4:00 82% 17 km
Mo, 30.01. 3:30 81% 18 km
Mo, 30.01. 3:00 83% 16 km
Ortszeit Niederschlagsmenge Niederschlagsart
Mo, 30.01. 1:00 0.0 l/m2 in 6 Std. -
So, 29.01. 19:00 0.0 l/m2 in 12 Std. -
So, 29.01. 13:00 0.0 l/m2 in 6 Std. -
So, 29.01. 7:00 0.0 l/m2 in 12 Std. -
So, 29.01. 1:00 0.0 l/m2 in 6 Std. -
Sa, 28.01. 19:00 0.1 l/m2 in 12 Std. Regen
Sa, 28.01. 13:00 0.1 l/m2 in 6 Std. Regen
Sa, 28.01. 7:00 0.1 l/m2 in 12 Std. Regen
Ortszeit Niederschlagsmenge Niederschlagsart
Mo, 30.01. 6:00 0.0 l/m2 in 1 Std. -
Mo, 30.01. 5:50 keine Meldung -
Mo, 30.01. 5:40 keine Meldung -
Mo, 30.01. 5:30 0.0 l/m2 in 30 Min -
Mo, 30.01. 5:20 keine Meldung -
Mo, 30.01. 5:10 keine Meldung -
Mo, 30.01. 5:00 0.0 l/m2 in 1 Std. -
Mo, 30.01. 4:30 0.0 l/m2 in 30 Min -
Mo, 30.01. 4:00 0.0 l/m2 in 1 Std. -
Mo, 30.01. 3:30 0.0 l/m2 in 30 Min -
Mo, 30.01. 3:00 0.0 l/m2 in 1 Std. -
Ortszeit Stärke Spitze Richtung
km/h Bft. km/h Grad Sektor
Mo, 30.01. 1:00 17 3 26 230° SW
So, 29.01. 19:00 13 3 20 220° SW
So, 29.01. 13:00 6 1 13 250° W
So, 29.01. 7:00 4 1 14 40° NO
So, 29.01. 1:00 11 2 25 20° N
Sa, 28.01. 19:00 17 3 31 20° N
Sa, 28.01. 13:00 18 3 25 40° NO
Sa, 28.01. 7:00 13 3 20 50° NO
Ortszeit Stärke Spitze Richtung
km/h Bft. km/h Grad Sektor
Mo, 30.01. 6:00 22 4 36 250° W
Mo, 30.01. 5:50 22 4 - 250° W
Mo, 30.01. 5:40 22 4 - 240° SW
Mo, 30.01. 5:30 22 4 36 240° SW
Mo, 30.01. 5:20 22 4 - 240° SW
Mo, 30.01. 5:10 24 4 - 230° SW
Mo, 30.01. 5:00 24 4 39 240° SW
Mo, 30.01. 4:30 29 5 40 230° SW
Mo, 30.01. 4:00 26 4 35 210° SW
Mo, 30.01. 3:30 25 4 36 220° SW
Mo, 30.01. 3:00 24 4 31 210° SW
Ortszeit Untergrenze Bedeckung Gattung
total tief tief mittel hoch
Mo, 30.01. 1:00 4500 m 4/8 2/8 - - -
So, 29.01. 19:00 - 0/8 0/8 - - -
So, 29.01. 13:00 5400 m 8/8 8/8 - - -
So, 29.01. 7:00 780 m 8/8 8/8 - - -
So, 29.01. 1:00 870 m 8/8 8/8 - - -
Sa, 28.01. 19:00 900 m 8/8 8/8 - - -
Sa, 28.01. 13:00 540 m 7/8 7/8 - - -
Sa, 28.01. 7:00 360 m 5/8 5/8 - - -
Ortszeit Bedeckungsgrad in Achtel und Wolkenuntergrenze
Mo, 30.01. 6:00 8(720m)
Mo, 30.01. 5:50 8(720m)
Mo, 30.01. 5:40 8
Mo, 30.01. 5:30 8(690m)
Mo, 30.01. 5:20 8(690m)
Mo, 30.01. 5:10 8
Mo, 30.01. 5:00 6(720m)
Mo, 30.01. 4:30 2(720m) 5(3600m)
Mo, 30.01. 4:00 5(870m) 7(1440m) 7(9000m)
Mo, 30.01. 3:30 5(1020m) 6(7800m) 8(9000m)
Mo, 30.01. 3:00 6(7500m) 8(8100m) 8(9000m)
Ortszeit Luftdruck NN (hPa) Tendenz (hPa in 3 Std.)
Mo, 30.01. 1:00 1026 - 1,6
So, 29.01. 19:00 1028 - 0,1
So, 29.01. 13:00 1030 - 1,2
So, 29.01. 7:00 1030 - 0,3
So, 29.01. 1:00 1031 - 0,1
Sa, 28.01. 19:00 1029 + 1,0
Sa, 28.01. 13:00 1028 + 0,5
Sa, 28.01. 7:00 1026 + 0,8
Ortszeit Luftdruck NN (hPa) Tendenz (hPa in 3 Std.)
Mo, 30.01. 6:00 1025 - 1,4
Mo, 30.01. 5:50 1025 keine Meldung
Mo, 30.01. 5:40 1025 keine Meldung
Mo, 30.01. 5:30 1025 - 2,4
Mo, 30.01. 5:20 1025 keine Meldung
Mo, 30.01. 5:10 1025 keine Meldung
Mo, 30.01. 5:00 1025 - 2,1
Mo, 30.01. 4:30 1024 - 2,0
Mo, 30.01. 4:00 1024 - 1,8
Mo, 30.01. 3:30 1026 - 0,8
Mo, 30.01. 3:00 1026 - 0,9
Ortszeit Schneehöhe (cm)
Mo, 30.01. 1:00 0
So, 29.01. 19:00 0
So, 29.01. 13:00 0
So, 29.01. 7:00 0
So, 29.01. 1:00 0
Sa, 28.01. 19:00 0
Sa, 28.01. 13:00 0
Sa, 28.01. 7:00 0
Ortszeit Schneehöhe (cm)
Mo, 30.01. 6:00 0
Mo, 30.01. 5:50 0
Mo, 30.01. 5:40 0
Mo, 30.01. 5:30 0
Mo, 30.01. 5:20 0
Mo, 30.01. 5:10 0
Mo, 30.01. 5:00 0
Mo, 30.01. 4:30 0
Mo, 30.01. 4:00 0
Mo, 30.01. 3:30 0
Mo, 30.01. 3:00 0
Link zu dieser Seite / Seite empfehlen

Das Wetter in ...